createdAt,value
2019-05-02T00:00:00.665Z,99977.19
2019-05-02T00:02:32.874Z,99973.17
2019-05-02T00:05:05.749Z,99978.73
2019-05-02T00:07:37.369Z,99969.69
2019-05-02T00:10:11.051Z,99963.41
2019-05-02T00:12:43.771Z,99961.90
2019-05-02T00:15:18.566Z,99960.66
2019-05-02T00:17:49.922Z,99958.61
2019-05-02T00:20:25.638Z,99962.61
2019-05-02T00:22:54.406Z,99957.90
2019-05-02T00:25:26.051Z,99954.34
2019-05-02T00:27:57.572Z,99957.70
2019-05-02T00:30:30.009Z,99956.85
2019-05-02T00:33:01.907Z,99953.99
2019-05-02T00:35:34.426Z,99949.13
2019-05-02T00:38:05.820Z,99960.32
2019-05-02T00:40:36.955Z,99958.09
2019-05-02T00:43:09.023Z,99954.70
2019-05-02T00:45:40.658Z,99952.29
2019-05-02T00:48:13.900Z,99953.41
2019-05-02T00:50:50.921Z,99947.02
2019-05-02T00:53:18.765Z,99939.86
2019-05-02T00:55:50.651Z,99938.91
2019-05-02T00:58:21.955Z,99937.60
2019-05-02T01:00:55.103Z,99933.39
2019-05-02T01:03:27.707Z,99930.37
2019-05-02T01:05:59.877Z,99930.90
2019-05-02T01:08:35.374Z,99928.33
2019-05-02T01:11:06.019Z,99926.53
2019-05-02T01:13:37.262Z,99928.14
2019-05-02T01:16:08.550Z,99926.91
2019-05-02T01:18:41.357Z,99925.46
2019-05-02T01:21:13.320Z,99921.23
2019-05-02T01:23:44.351Z,99922.93
2019-05-02T01:26:15.910Z,99919.63
2019-05-02T01:28:53.756Z,99924.02
2019-05-02T01:31:23.342Z,99910.59
2019-05-02T01:33:55.942Z,99914.12
2019-05-02T01:36:28.844Z,99917.08
2019-05-02T01:39:02.945Z,99913.48
2019-05-02T01:41:35.543Z,99915.08
2019-05-02T01:44:06.729Z,99915.08
2019-05-02T01:46:37.899Z,99906.12
2019-05-02T01:49:08.787Z,99912.96
2019-05-02T01:51:42.024Z,99913.19
2019-05-02T01:54:14.311Z,99912.69
2019-05-02T01:56:45.968Z,99912.50
2019-05-02T01:59:18.279Z,99910.66
2019-05-02T02:01:53.092Z,99910.73
2019-05-02T02:04:22.898Z,99908.99
2019-05-02T02:06:54.243Z,99903.84
2019-05-02T02:09:25.521Z,99908.83
2019-05-02T02:11:56.321Z,99903.97
2019-05-02T02:14:27.667Z,99905.72
2019-05-02T02:16:59.443Z,99903.72
2019-05-02T02:19:34.616Z,99904.01
2019-05-02T02:22:07.262Z,99899.69
2019-05-02T02:24:39.885Z,99903.91
2019-05-02T02:27:10.846Z,99898.30
2019-05-02T02:29:44.078Z,99893.40
2019-05-02T02:32:20.120Z,99893.09
2019-05-02T02:34:48.059Z,99891.67
2019-05-02T02:37:19.333Z,99891.62
2019-05-02T02:39:54.001Z,99890.45
2019-05-02T02:42:24.972Z,99887.27
2019-05-02T02:44:58.641Z,99878.44
2019-05-02T02:47:29.954Z,99872.66
2019-05-02T02:50:02.537Z,99866.28
2019-05-02T02:52:37.766Z,99872.36
2019-05-02T02:55:07.879Z,99865.91
2019-05-02T02:57:39.421Z,99867.97
2019-05-02T03:00:11.450Z,99862.05
2019-05-02T03:02:48.409Z,99859.59
2019-05-02T03:05:18.997Z,99862.77
2019-05-02T03:07:49.156Z,99863.02
2019-05-02T03:10:20.868Z,99867.08
2019-05-02T03:12:53.790Z,99860.17
2019-05-02T03:15:29.770Z,99866.23
2019-05-02T03:18:02.220Z,99864.22
2019-05-02T03:20:39.842Z,99866.54
2019-05-02T03:23:07.017Z,99865.11
2019-05-02T03:25:49.830Z,99863.69
2019-05-02T03:28:17.380Z,99862.27
2019-05-02T03:30:44.920Z,99855.59
2019-05-02T03:33:16.065Z,99854.13
2019-05-02T03:35:49.085Z,99848.93
2019-05-02T03:38:31.417Z,99854.76
2019-05-02T03:40:55.778Z,99847.55
2019-05-02T03:43:27.728Z,99853.50
2019-05-02T03:45:59.055Z,99852.33
2019-05-02T03:48:30.716Z,99856.72
2019-05-02T03:51:05.131Z,99860.41
2019-05-02T03:53:35.153Z,99855.16
2019-05-02T03:56:11.495Z,99857.22
2019-05-02T03:58:38.841Z,99857.34
2019-05-02T04:01:09.981Z,99860.25
2019-05-02T04:03:43.754Z,99859.44
2019-05-02T04:06:21.259Z,99857.06
2019-05-02T04:08:58.727Z,99851.07
2019-05-02T04:11:25.536Z,99859.38
2019-05-02T04:13:57.991Z,99850.53
2019-05-02T04:16:30.925Z,99854.84
2019-05-02T04:19:03.043Z,99851.28
2019-05-02T04:21:34.778Z,99850.58
2019-05-02T04:24:15.119Z,99852.70
2019-05-02T04:26:52.086Z,99855.30
2019-05-02T04:29:13.195Z,99846.95
2019-05-02T04:31:44.650Z,99847.00
2019-05-02T04:34:17.871Z,99846.25
2019-05-02T04:37:00.026Z,99848.96
2019-05-02T04:39:22.791Z,99849.89
2019-05-02T04:41:53.817Z,99855.45
2019-05-02T04:44:32.398Z,99848.83
2019-05-02T04:46:59.806Z,99848.42
2019-05-02T04:49:35.551Z,99848.75
2019-05-02T04:52:07.880Z,99857.22
2019-05-02T04:54:38.879Z,99857.27
2019-05-02T04:57:11.321Z,99862.20
2019-05-02T04:59:42.618Z,99858.95
2019-05-02T05:02:13.942Z,99859.62
2019-05-02T05:04:48.690Z,99857.98
2019-05-02T05:07:17.970Z,99863.81
2019-05-02T05:09:57.168Z,99864.78
2019-05-02T05:12:22.315Z,99860.34
2019-05-02T05:14:54.391Z,99868.51
2019-05-02T05:17:32.472Z,99871.27
2019-05-02T05:20:00.320Z,99865.19
2019-05-02T05:22:36.479Z,99871.10
2019-05-02T05:25:07.554Z,99864.61
2019-05-02T05:27:39.247Z,99870.14
2019-05-02T05:30:15.398Z,99870.81
2019-05-02T05:32:43.844Z,99871.70
2019-05-02T05:35:14.935Z,99868.46
2019-05-02T05:37:51.361Z,99870.94
2019-05-02T05:40:22.595Z,99870.39
2019-05-02T05:42:52.497Z,99875.89
2019-05-02T05:45:23.822Z,99863.98
2019-05-02T05:47:57.538Z,99866.03
2019-05-02T05:50:32.311Z,99866.33
2019-05-02T05:53:01.802Z,99864.39
2019-05-02T05:55:34.649Z,99862.97
2019-05-02T05:58:13.073Z,99868.42
2019-05-02T06:00:39.458Z,99867.62
2019-05-02T06:03:14.144Z,99860.37
2019-05-02T06:05:45.196Z,99867.83
2019-05-02T06:08:18.532Z,99878.56
2019-05-02T06:10:50.179Z,99869.22
2019-05-02T06:13:21.795Z,99870.86
2019-05-02T06:16:02.238Z,99870.86
2019-05-02T06:18:28.452Z,99868.05
2019-05-02T06:21:03.415Z,99862.42
2019-05-02T06:23:36.569Z,99861.96
2019-05-02T06:26:13.054Z,99870.64
2019-05-02T06:28:41.781Z,99867.69
2019-05-02T06:31:16.698Z,99872.84
2019-05-02T06:33:47.118Z,99872.02
2019-05-02T06:36:18.787Z,99869.64
2019-05-02T06:38:52.321Z,99874.16
2019-05-02T06:41:23.545Z,99880.39
2019-05-02T06:43:55.588Z,99875.50
2019-05-02T06:46:29.603Z,99881.41
2019-05-02T06:49:00.999Z,99881.12
2019-05-02T06:51:32.523Z,99886.55
2019-05-02T06:54:04.210Z,99893.70
2019-05-02T06:56:35.821Z,99893.70
2019-05-02T06:59:07.818Z,99886.02
2019-05-02T07:01:39.043Z,99898.36
2019-05-02T07:04:11.975Z,99895.48
2019-05-02T07:06:57.792Z,99902.87
2019-05-02T07:09:16.752Z,99898.55
2019-05-02T07:11:57.053Z,99900.31
2019-05-02T07:14:23.519Z,99895.66
2019-05-02T07:16:57.657Z,99893.15
2019-05-02T07:19:32.092Z,99893.57
2019-05-02T07:22:04.330Z,99898.72
2019-05-02T07:24:36.010Z,99902.78
2019-05-02T07:27:08.520Z,99897.34
2019-05-02T07:29:39.796Z,99896.83
2019-05-02T07:32:11.618Z,99899.09
2019-05-02T07:34:44.135Z,99897.71
2019-05-02T07:37:15.905Z,99888.31
2019-05-02T07:39:47.619Z,99900.59
2019-05-02T07:42:18.924Z,99896.31
2019-05-02T07:44:50.087Z,99903.58
2019-05-02T07:47:22.488Z,99906.30
2019-05-02T07:49:55.726Z,99904.22
2019-05-02T07:52:28.920Z,99893.06
2019-05-02T07:55:01.075Z,99902.67
2019-05-02T07:57:33.521Z,99907.20
2019-05-02T08:00:07.896Z,99905.28
2019-05-02T08:02:39.589Z,99907.58
2019-05-02T08:05:15.841Z,99897.45
2019-05-02T08:07:44.454Z,99897.84
2019-05-02T08:10:22.220Z,99900.13
2019-05-02T08:12:51.023Z,99909.50
2019-05-02T08:15:24.500Z,99907.63
2019-05-02T08:17:55.513Z,99914.13
2019-05-02T08:20:27.285Z,99918.80
2019-05-02T08:22:58.939Z,99923.84
2019-05-02T08:25:30.093Z,99916.80
2019-05-02T08:28:04.835Z,99920.28
2019-05-02T08:30:40.552Z,99915.80
2019-05-02T08:33:11.697Z,99915.55
2019-05-02T08:35:43.277Z,99929.88
2019-05-02T08:38:17.947Z,99918.75
2019-05-02T08:40:49.787Z,99910.23
2019-05-02T08:43:21.704Z,99909.55
2019-05-02T08:45:53.594Z,99919.91
2019-05-02T08:48:24.857Z,99916.97
2019-05-02T08:50:59.069Z,99918.08
2019-05-02T08:53:30.908Z,99921.75
2019-05-02T08:56:02.098Z,99927.88
2019-05-02T08:58:33.187Z,99929.79
2019-05-02T09:01:04.537Z,99925.39
2019-05-02T09:03:54.777Z,99924.09
2019-05-02T09:06:10.698Z,99920.30
2019-05-02T09:08:46.121Z,99921.02
2019-05-02T09:11:15.860Z,99921.83
2019-05-02T09:13:47.096Z,99932.20
2019-05-02T09:16:23.629Z,99915.59
2019-05-02T09:18:53.960Z,99930.29
2019-05-02T09:21:26.687Z,99919.92
2019-05-02T09:23:55.756Z,99907.70
2019-05-02T09:26:37.771Z,99913.51
2019-05-02T09:29:01.689Z,99906.34
2019-05-02T09:31:36.775Z,99905.09
2019-05-02T09:34:05.396Z,99909.06
2019-05-02T09:36:38.177Z,99909.28
2019-05-02T09:39:08.986Z,99905.52
2019-05-02T09:41:41.807Z,99896.89
2019-05-02T09:44:14.539Z,99901.72
2019-05-02T09:46:47.395Z,99907.98
2019-05-02T09:49:17.726Z,99908.86
2019-05-02T09:51:50.421Z,99896.09
2019-05-02T09:54:23.213Z,99899.99
2019-05-02T09:56:54.385Z,99899.45
2019-05-02T09:59:30.311Z,99897.09
2019-05-02T10:02:01.891Z,99889.81
2019-05-02T10:04:33.031Z,99888.67
2019-05-02T10:07:04.934Z,99887.05
2019-05-02T10:09:35.917Z,99887.92
2019-05-02T10:12:06.691Z,99887.01
2019-05-02T10:14:37.807Z,99892.25
2019-05-02T10:17:09.312Z,99876.45
2019-05-02T10:19:42.991Z,99876.07
2019-05-02T10:22:12.744Z,99882.17
2019-05-02T10:24:43.898Z,99874.89
2019-05-02T10:27:21.641Z,99868.64
2019-05-02T10:29:53.621Z,99868.88
2019-05-02T10:32:32.032Z,99869.47
2019-05-02T10:35:12.896Z,99870.13
2019-05-02T10:37:58.883Z,99869.53
2019-05-02T10:40:38.865Z,99872.77
2019-05-02T10:43:13.783Z,99883.56
2019-05-02T10:45:54.104Z,99859.25
2019-05-02T10:48:28.041Z,99856.76
2019-05-02T10:50:57.055Z,99869.45
2019-05-02T10:53:28.901Z,99871.47
2019-05-02T10:56:03.964Z,99868.74
2019-05-02T10:58:42.716Z,99865.16
2019-05-02T11:01:24.001Z,99864.26
2019-05-02T11:04:05.100Z,99866.84
2019-05-02T11:06:46.309Z,99871.05
2019-05-02T11:09:26.243Z,99869.94
2019-05-02T11:12:02.558Z,99864.31
2019-05-02T11:14:39.296Z,99860.74
2019-05-02T11:17:19.278Z,99854.61
2019-05-02T11:20:01.913Z,99853.09
2019-05-02T11:22:36.277Z,99856.08
2019-05-02T11:25:08.457Z,99849.99
2019-05-02T11:27:39.466Z,99842.72
2019-05-02T11:30:12.212Z,99840.37
2019-05-02T11:32:43.479Z,99844.02
2019-05-02T11:35:14.975Z,99845.49
2019-05-02T11:37:47.636Z,99861.01
2019-05-02T11:40:22.673Z,99861.89
2019-05-02T11:42:57.177Z,99852.75
2019-05-02T11:45:26.716Z,99856.61
2019-05-02T11:48:01.779Z,99853.47
2019-05-02T11:50:35.304Z,99863.80
2019-05-02T11:53:09.211Z,99854.41
2019-05-02T11:55:41.386Z,99854.74
2019-05-02T11:58:12.600Z,99852.83
2019-05-02T12:00:49.328Z,99844.94
2019-05-02T12:03:19.569Z,99860.58
2019-05-02T12:05:52.405Z,99854.13
2019-05-02T12:08:25.039Z,99845.47
2019-05-02T12:11:03.898Z,99848.75
2019-05-02T12:13:42.663Z,99839.36
2019-05-02T12:16:18.853Z,99845.70
2019-05-02T12:18:50.926Z,99838.00
2019-05-02T12:21:23.669Z,99843.70
2019-05-02T12:23:56.468Z,99840.34
2019-05-02T12:26:28.249Z,99830.49
2019-05-02T12:29:00.107Z,99832.17
2019-05-02T12:31:47.279Z,99841.05
2019-05-02T12:34:18.478Z,99834.44
2019-05-02T12:36:52.310Z,99826.09
2019-05-02T12:39:24.173Z,99831.08
2019-05-02T12:41:56.387Z,99828.42
2019-05-02T12:44:28.594Z,99822.41
2019-05-02T12:47:00.122Z,99824.12
2019-05-02T12:49:32.514Z,99821.55
2019-05-02T12:52:05.949Z,99813.95
2019-05-02T12:54:39.028Z,99818.16
2019-05-02T12:57:12.365Z,99819.98
2019-05-02T12:59:44.778Z,99830.33
2019-05-02T13:02:18.325Z,99820.23
2019-05-02T13:04:50.340Z,99814.34
2019-05-02T13:07:23.348Z,99818.02
2019-05-02T13:09:55.351Z,99819.88
2019-05-02T13:12:30.083Z,99823.03
2019-05-02T13:15:02.259Z,99824.93
2019-05-02T13:17:37.194Z,99821.08
2019-05-02T13:20:09.664Z,99814.98
2019-05-02T13:22:42.898Z,99813.98
2019-05-02T13:25:16.258Z,99817.44
2019-05-02T13:27:48.995Z,99820.42
2019-05-02T13:30:22.133Z,99810.78
2019-05-02T13:32:58.018Z,99816.67
2019-05-02T13:35:32.333Z,99808.72
2019-05-02T13:38:04.448Z,99806.60
2019-05-02T13:40:39.242Z,99810.36
2019-05-02T13:43:12.360Z,99804.83
2019-05-02T13:45:45.282Z,99805.45
2019-05-02T13:48:17.237Z,99802.16
2019-05-02T13:50:48.765Z,99802.35
2019-05-02T13:53:22.706Z,99810.93
2019-05-02T13:55:57.781Z,99810.24
2019-05-02T13:58:32.648Z,99802.87
2019-05-02T14:01:04.408Z,99800.41
2019-05-02T14:03:36.588Z,99799.47
2019-05-02T14:06:08.542Z,99805.88
2019-05-02T14:08:43.004Z,99808.04
2019-05-02T14:11:18.261Z,99818.08
2019-05-02T14:13:49.702Z,99803.36
2019-05-02T14:16:28.907Z,99809.95
2019-05-02T14:19:02.859Z,99805.86
2019-05-02T14:21:43.046Z,99807.69
2019-05-02T14:24:32.363Z,99807.80
2019-05-02T14:27:35.732Z,99808.31
2019-05-02T14:30:16.803Z,99797.22
2019-05-02T14:32:49.859Z,99798.46
2019-05-02T14:35:27.828Z,99797.48
2019-05-02T14:37:57.617Z,99794.16
2019-05-02T14:40:31.937Z,99801.89
2019-05-02T14:43:06.050Z,99806.14
2019-05-02T14:45:37.172Z,99805.28
2019-05-02T14:48:21.085Z,99800.97
2019-05-02T14:50:45.635Z,99801.52
2019-05-02T14:53:22.126Z,99798.28
2019-05-02T14:55:53.155Z,99798.98
2019-05-02T14:58:27.570Z,99804.32
2019-05-02T15:00:59.701Z,99801.34
2019-05-02T15:03:32.500Z,99798.52
2019-05-02T15:06:07.078Z,99800.02
2019-05-02T15:08:41.994Z,99792.19
2019-05-02T15:11:15.503Z,99791.48
2019-05-02T15:13:46.901Z,99796.36
2019-05-02T15:16:23.024Z,99796.80
2019-05-02T15:18:57.086Z,99794.85
2019-05-02T15:21:29.675Z,99783.56
2019-05-02T15:24:02.064Z,99781.63
2019-05-02T15:26:37.461Z,99779.64
2019-05-02T15:29:12.341Z,99773.34
2019-05-02T15:31:45.101Z,99765.02
2019-05-02T15:34:19.315Z,99774.45
2019-05-02T15:36:52.701Z,99772.28
2019-05-02T15:42:01.756Z,99758.87
2019-05-02T15:44:33.435Z,99766.61
2019-05-02T15:47:07.081Z,99754.48
2019-05-02T15:49:44.872Z,99768.84
2019-05-02T15:52:18.873Z,99769.73
2019-05-02T15:55:00.006Z,99756.76
2019-05-02T15:57:25.368Z,99759.25
2019-05-02T15:59:58.441Z,99757.25
2019-05-02T16:02:32.120Z,99775.03
2019-05-02T16:05:07.141Z,99777.33
2019-05-02T16:07:43.268Z,99763.37
2019-05-02T16:10:15.427Z,99770.48
2019-05-02T16:12:48.677Z,99762.06
2019-05-02T16:15:24.812Z,99768.11
2019-05-02T16:17:56.886Z,99767.91
2019-05-02T16:20:29.591Z,99750.34
2019-05-02T16:23:01.878Z,99757.45
2019-05-02T16:25:34.102Z,99759.51
2019-05-02T16:28:06.142Z,99750.13
2019-05-02T16:30:44.119Z,99751.94
2019-05-02T16:33:18.897Z,99755.42
2019-05-02T16:35:46.338Z,99752.57
2019-05-02T16:38:19.252Z,99756.95
2019-05-02T16:40:52.770Z,99752.06
2019-05-02T16:43:27.078Z,99757.37
2019-05-02T16:46:01.731Z,99762.47
2019-05-02T16:48:37.852Z,99765.98
2019-05-02T16:51:27.560Z,99762.47
2019-05-02T16:53:42.904Z,99763.80
2019-05-02T16:56:16.005Z,99763.78
2019-05-02T16:58:49.015Z,99763.78
2019-05-02T17:01:27.183Z,99774.94
2019-05-02T17:04:02.430Z,99769.98
2019-05-02T17:06:32.525Z,99768.19
2019-05-02T17:09:07.256Z,99767.89
2019-05-02T17:11:42.016Z,99777.98
2019-05-02T17:14:14.405Z,99766.07
2019-05-02T17:16:52.434Z,99774.73
2019-05-02T17:19:21.627Z,99769.35
2019-05-02T17:21:56.604Z,99769.48
2019-05-02T17:24:29.524Z,99771.67
2019-05-02T17:27:02.549Z,99768.16
2019-05-02T17:29:35.627Z,99757.08
2019-05-02T17:32:09.084Z,99767.05
2019-05-02T17:34:42.219Z,99759.59
2019-05-02T17:37:14.222Z,99760.44
2019-05-02T17:39:46.949Z,99759.44
2019-05-02T17:42:22.325Z,99757.05
2019-05-02T17:44:57.941Z,99760.44
2019-05-02T17:47:25.790Z,99754.58
2019-05-02T17:49:59.663Z,99756.30
2019-05-02T17:52:34.134Z,99756.67
2019-05-02T17:55:08.225Z,99753.98
2019-05-02T17:57:42.000Z,99754.05
2019-05-02T18:00:16.867Z,99757.82
2019-05-02T18:02:51.789Z,99756.34
2019-05-02T18:05:26.543Z,99747.05
2019-05-02T18:07:58.011Z,99750.37
2019-05-02T18:10:29.560Z,99748.91
2019-05-02T18:13:02.680Z,99755.39
2019-05-02T18:15:36.318Z,99758.69
2019-05-02T18:18:08.166Z,99762.91
2019-05-02T18:20:42.709Z,99762.31
2019-05-02T18:23:18.753Z,99759.69
2019-05-02T18:25:52.436Z,99751.31
2019-05-02T18:28:26.436Z,99759.02
2019-05-02T18:31:04.128Z,99762.91
2019-05-02T18:33:36.087Z,99763.71
2019-05-02T18:36:08.241Z,99767.28
2019-05-02T18:38:41.609Z,99763.77
2019-05-02T18:41:13.412Z,99764.32
2019-05-02T18:43:46.299Z,99764.30
2019-05-02T18:46:19.977Z,99763.52
2019-05-02T18:48:51.939Z,99765.30
2019-05-02T18:51:24.657Z,99765.19
2019-05-02T18:54:04.267Z,99760.73
2019-05-02T18:56:34.040Z,99765.66
2019-05-02T18:59:05.241Z,99760.81
2019-05-02T19:01:36.903Z,99758.06
2019-05-02T19:04:10.045Z,99757.74
2019-05-02T19:06:43.311Z,99765.17
2019-05-02T19:09:17.529Z,99765.91
2019-05-02T19:11:47.622Z,99760.58
2019-05-02T19:14:22.209Z,99765.28
2019-05-02T19:16:58.001Z,99765.61
2019-05-02T19:19:32.990Z,99763.70
2019-05-02T19:22:02.661Z,99754.21
2019-05-02T19:24:36.619Z,99748.02
2019-05-02T19:27:08.755Z,99737.80
2019-05-02T19:29:40.156Z,99732.02
2019-05-02T19:32:12.321Z,99733.84
2019-05-02T19:34:43.601Z,99733.38
2019-05-02T19:37:16.500Z,99735.47
2019-05-02T19:39:52.373Z,99728.89
2019-05-02T19:42:26.196Z,99736.56
2019-05-02T19:45:03.783Z,99737.90
2019-05-02T19:47:31.702Z,99746.12
2019-05-02T19:50:06.824Z,99731.20
2019-05-02T19:52:41.018Z,99738.05
2019-05-02T19:55:19.807Z,99731.53
2019-05-02T19:57:46.040Z,99728.92
2019-05-02T20:00:20.055Z,99721.53
2019-05-02T20:02:52.298Z,99718.50
2019-05-02T20:05:25.526Z,99713.83
2019-05-02T20:07:56.334Z,99715.80
2019-05-02T20:10:29.455Z,99708.92
2019-05-02T20:13:02.885Z,99705.89
2019-05-02T20:15:35.608Z,99701.97
2019-05-02T20:18:08.152Z,99709.01
2019-05-02T20:20:44.247Z,99711.22
2019-05-02T20:23:18.760Z,99704.77
2019-05-02T20:25:52.137Z,99700.09
2019-05-02T20:28:22.759Z,99695.84
2019-05-02T20:30:54.410Z,99693.33
2019-05-02T20:33:25.756Z,99691.59
2019-05-02T20:35:57.570Z,99696.05
2019-05-02T20:38:28.571Z,99696.23
2019-05-02T20:41:02.778Z,99692.40
2019-05-02T20:43:34.970Z,99693.67
2019-05-02T20:46:06.739Z,99686.64
2019-05-02T20:48:38.351Z,99686.28
2019-05-02T20:51:11.980Z,99680.84
2019-05-02T20:53:42.895Z,99681.34
2019-05-02T20:56:15.139Z,99672.98
2019-05-02T20:58:47.742Z,99676.07
2019-05-02T21:01:20.275Z,99677.86
2019-05-02T21:03:52.369Z,99670.14
2019-05-02T21:06:37.421Z,99676.67
2019-05-02T21:09:02.227Z,99671.90
2019-05-02T21:11:36.049Z,99680.21
2019-05-02T21:14:07.686Z,99678.83
2019-05-02T21:16:45.970Z,99682.05
2019-05-02T21:19:21.746Z,99667.81
2019-05-02T21:21:55.214Z,99665.28
2019-05-02T21:24:28.055Z,99672.06
2019-05-02T21:27:01.945Z,99671.25
2019-05-02T21:29:34.176Z,99673.37
2019-05-02T21:32:06.134Z,99669.97
2019-05-02T21:34:38.597Z,99660.41
2019-05-02T21:37:10.334Z,99658.23
2019-05-02T21:39:42.559Z,99663.10
2019-05-02T21:42:14.358Z,99660.95
2019-05-02T21:44:45.637Z,99665.71
2019-05-02T21:47:17.763Z,99655.27
2019-05-02T21:49:52.466Z,99662.94
2019-05-02T21:52:25.471Z,99663.81
2019-05-02T21:54:56.994Z,99670.23
2019-05-02T21:57:28.701Z,99671.02
2019-05-02T22:00:02.326Z,99669.18
2019-05-02T22:02:34.931Z,99665.78
2019-05-02T22:05:07.548Z,99664.05
2019-05-02T22:07:41.593Z,99662.69
2019-05-02T22:10:12.253Z,99657.95
2019-05-02T22:12:44.132Z,99655.77
2019-05-02T22:15:16.091Z,99661.08
2019-05-02T22:17:47.253Z,99654.58
2019-05-02T22:20:18.996Z,99663.80
2019-05-02T22:22:52.020Z,99660.33
2019-05-02T22:25:23.132Z,99668.13
2019-05-02T22:27:54.173Z,99661.61
2019-05-02T22:30:25.287Z,99652.48
2019-05-02T22:32:56.931Z,99656.33
2019-05-02T22:35:28.700Z,99648.03
2019-05-02T22:38:02.252Z,99648.50
2019-05-02T22:40:33.764Z,99653.30
2019-05-02T22:43:06.337Z,99650.37
2019-05-02T22:45:38.301Z,99648.67
2019-05-02T22:48:11.899Z,99650.94
2019-05-02T22:50:43.275Z,99647.08
2019-05-02T22:53:14.879Z,99643.96
2019-05-02T22:55:46.272Z,99646.91
2019-05-02T22:58:17.952Z,99659.02
2019-05-02T23:00:49.310Z,99651.20
2019-05-02T23:03:21.575Z,99650.16
2019-05-02T23:05:54.133Z,99639.98
2019-05-02T23:08:25.280Z,99643.89
2019-05-02T23:10:56.443Z,99633.77
2019-05-02T23:13:28.031Z,99641.11
2019-05-02T23:15:59.251Z,99645.94
2019-05-02T23:18:31.940Z,99645.71
2019-05-02T23:21:03.819Z,99643.41
2019-05-02T23:23:34.979Z,99644.03
2019-05-02T23:26:08.042Z,99639.61
2019-05-02T23:28:42.288Z,99638.70
2019-05-02T23:31:14.200Z,99629.92
2019-05-02T23:33:47.329Z,99637.23
2019-05-02T23:36:18.892Z,99632.38
2019-05-02T23:38:52.220Z,99632.78
2019-05-02T23:41:25.244Z,99639.05
2019-05-02T23:43:57.167Z,99631.92
2019-05-02T23:46:28.270Z,99635.81
2019-05-02T23:48:59.378Z,99636.05
2019-05-02T23:51:32.251Z,99636.33
2019-05-02T23:54:04.020Z,99636.30
2019-05-02T23:56:35.217Z,99639.27
2019-05-02T23:59:06.398Z,99637.09
